River Oaks, Texas
Current Conditions -  °F | °C
As of 1:52 AM on Wednesday 22 Oct 2014 (Local Time) from KNFW Reporting Station
Clear Clear  
Wind Chill: 68°   Ceiling: Unl
Heat Index: 68°   Visibility: 10mi
Dew Point: 56°   Wind: 3mph
Humidity: 65%   Direction: 90°E
Pressure: 30.1"   Gusts: NA
Location:  32.7763°N, 97.4092°W
Report Text: KNFW 220652Z AUTO 09003KT 10SM CLR 20/13 A3010 RMK AO2 SLP176 T02000133 CHINO N VISNO N $
Loading
Personal Weather Stations






























Interactive Weather Map
Tropical Storm Tracking
New forecast layout! Learn more

10-Day Weather Forecast

Advertisements
Track Severe Weather on mobile